sensor_id;sensor_type;location;lat;lon;timestamp;temperature;humidity
52285;DHT22;38238;53.304;6.606;2022-11-15T00:00:49;7.70;99.90
52285;DHT22;38238;53.304;6.606;2022-11-15T00:03:16;7.70;99.90
52285;DHT22;38238;53.304;6.606;2022-11-15T00:05:42;7.70;99.90
52285;DHT22;38238;53.304;6.606;2022-11-15T00:08:08;7.70;99.90
52285;DHT22;38238;53.304;6.606;2022-11-15T00:10:34;7.70;99.90
52285;DHT22;38238;53.304;6.606;2022-11-15T00:13:03;7.70;99.90
52285;DHT22;38238;53.304;6.606;2022-11-15T00:15:29;7.70;99.90
52285;DHT22;38238;53.304;6.606;2022-11-15T00:17:55;7.70;99.90
52285;DHT22;38238;53.304;6.606;2022-11-15T00:20:20;7.70;99.90
52285;DHT22;38238;53.304;6.606;2022-11-15T00:22:46;7.70;99.90
52285;DHT22;38238;53.304;6.606;2022-11-15T00:25:12;7.70;99.90
52285;DHT22;38238;53.304;6.606;2022-11-15T00:27:37;7.70;99.90
52285;DHT22;38238;53.304;6.606;2022-11-15T00:30:03;7.60;99.90
52285;DHT22;38238;53.304;6.606;2022-11-15T00:32:32;7.60;99.90
52285;DHT22;38238;53.304;6.606;2022-11-15T00:34:58;7.50;99.90
52285;DHT22;38238;53.304;6.606;2022-11-15T00:37:24;7.50;99.90
52285;DHT22;38238;53.304;6.606;2022-11-15T00:39:49;7.40;99.90
52285;DHT22;38238;53.304;6.606;2022-11-15T00:42:15;7.30;99.90
52285;DHT22;38238;53.304;6.606;2022-11-15T00:44:41;7.20;99.90
52285;DHT22;38238;53.304;6.606;2022-11-15T00:47:06;7.20;99.90
52285;DHT22;38238;53.304;6.606;2022-11-15T00:49:32;7.10;99.90
52285;DHT22;38238;53.304;6.606;2022-11-15T00:51:57;7.10;99.90
52285;DHT22;38238;53.304;6.606;2022-11-15T00:54:23;7.00;99.90
52285;DHT22;38238;53.304;6.606;2022-11-15T00:56:49;7.00;99.90
52285;DHT22;38238;53.304;6.606;2022-11-15T00:59:14;6.90;99.90
52285;DHT22;38238;53.304;6.606;2022-11-15T01:01:40;6.90;99.90
52285;DHT22;38238;53.304;6.606;2022-11-15T01:04:06;6.90;99.90
52285;DHT22;38238;53.304;6.606;2022-11-15T01:06:31;7.20;99.90
52285;DHT22;38238;53.304;6.606;2022-11-15T01:08:57;6.90;99.90
52285;DHT22;38238;53.304;6.606;2022-11-15T01:11:23;6.90;99.90
52285;DHT22;38238;53.304;6.606;2022-11-15T01:13:48;7.00;99.90
52285;DHT22;38238;53.304;6.606;2022-11-15T01:16:16;7.00;99.90
52285;DHT22;38238;53.304;6.606;2022-11-15T01:18:44;7.00;99.90
52285;DHT22;38238;53.304;6.606;2022-11-15T01:21:13;7.00;99.90
52285;DHT22;38238;53.304;6.606;2022-11-15T01:23:39;7.40;99.90
52285;DHT22;38238;53.304;6.606;2022-11-15T01:26:07;7.00;99.90
52285;DHT22;38238;53.304;6.606;2022-11-15T01:28:35;7.00;99.90
52285;DHT22;38238;53.304;6.606;2022-11-15T01:31:02;6.90;99.90
52285;DHT22;38238;53.304;6.606;2022-11-15T01:33:29;7.00;99.90
52285;DHT22;38238;53.304;6.606;2022-11-15T01:35:54;6.90;99.90
52285;DHT22;38238;53.304;6.606;2022-11-15T01:38:21;6.80;99.90
52285;DHT22;38238;53.304;6.606;2022-11-15T01:40:46;7.40;99.90
52285;DHT22;38238;53.304;6.606;2022-11-15T01:43:27;6.80;99.90
52285;DHT22;38238;53.304;6.606;2022-11-15T01:46:04;6.70;99.90
52285;DHT22;38238;53.304;6.606;2022-11-15T01:48:33;6.70;99.90
52285;DHT22;38238;53.304;6.606;2022-11-15T01:51:02;6.70;99.90
52285;DHT22;38238;53.304;6.606;2022-11-15T01:53:29;6.70;99.90
52285;DHT22;38238;53.304;6.606;2022-11-15T01:55:57;6.80;99.90
52285;DHT22;38238;53.304;6.606;2022-11-15T01:58:24;6.80;99.90
52285;DHT22;38238;53.304;6.606;2022-11-15T02:00:50;6.90;99.90
52285;DHT22;38238;53.304;6.606;2022-11-15T02:03:17;6.90;99.90
52285;DHT22;38238;53.304;6.606;2022-11-15T02:05:43;6.90;99.90
52285;DHT22;38238;53.304;6.606;2022-11-15T02:08:10;7.00;99.90
52285;DHT22;38238;53.304;6.606;2022-11-15T02:10:46;7.00;99.90
52285;DHT22;38238;53.304;6.606;2022-11-15T02:13:16;7.00;99.90
52285;DHT22;38238;53.304;6.606;2022-11-15T02:16:13;7.10;99.90
52285;DHT22;38238;53.304;6.606;2022-11-15T02:18:54;7.10;99.90
52285;DHT22;38238;53.304;6.606;2022-11-15T02:21:36;8.00;99.90
52285;DHT22;38238;53.304;6.606;2022-11-15T02:27:21;7.10;99.90
52285;DHT22;38238;53.304;6.606;2022-11-15T02:36:07;7.20;99.90
52285;DHT22;38238;53.304;6.606;2022-11-15T02:41:11;7.20;99.90
52285;DHT22;38238;53.304;6.606;2022-11-15T02:44:08;7.20;99.90
52285;DHT22;38238;53.304;6.606;2022-11-15T02:49:32;7.20;99.90
52285;DHT22;38238;53.304;6.606;2022-11-15T02:51:59;7.20;99.90
52285;DHT22;38238;53.304;6.606;2022-11-15T02:54:28;7.20;99.90
52285;DHT22;38238;53.304;6.606;2022-11-15T02:57:03;7.20;99.90
52285;DHT22;38238;53.304;6.606;2022-11-15T03:10:24;7.30;99.90
52285;DHT22;38238;53.304;6.606;2022-11-15T03:12:56;7.30;99.90
52285;DHT22;38238;53.304;6.606;2022-11-15T03:15:37;7.30;99.90
52285;DHT22;38238;53.304;6.606;2022-11-15T03:18:34;7.30;99.90
52285;DHT22;38238;53.304;6.606;2022-11-15T03:21:04;7.30;99.90
52285;DHT22;38238;53.304;6.606;2022-11-15T03:23:31;7.30;99.90
52285;DHT22;38238;53.304;6.606;2022-11-15T03:25:59;7.30;99.90
52285;DHT22;38238;53.304;6.606;2022-11-15T03:28:33;7.30;99.90
52285;DHT22;38238;53.304;6.606;2022-11-15T03:31:01;7.30;99.90
52285;DHT22;38238;53.304;6.606;2022-11-15T03:33:49;7.30;99.90
52285;DHT22;38238;53.304;6.606;2022-11-15T03:36:16;7.30;99.90
52285;DHT22;38238;53.304;6.606;2022-11-15T03:38:44;7.30;99.90
52285;DHT22;38238;53.304;6.606;2022-11-15T03:41:24;7.40;99.90
52285;DHT22;38238;53.304;6.606;2022-11-15T03:43:53;7.30;99.90
52285;DHT22;38238;53.304;6.606;2022-11-15T03:46:27;7.30;99.90
52285;DHT22;38238;53.304;6.606;2022-11-15T03:49:31;7.30;99.90
52285;DHT22;38238;53.304;6.606;2022-11-15T03:51:49;7.30;99.90
52285;DHT22;38238;53.304;6.606;2022-11-15T03:54:18;7.30;99.90
52285;DHT22;38238;53.304;6.606;2022-11-15T03:56:43;7.30;99.90
52285;DHT22;38238;53.304;6.606;2022-11-15T03:59:09;7.40;99.90
52285;DHT22;38238;53.304;6.606;2022-11-15T04:01:35;7.40;99.90
52285;DHT22;38238;53.304;6.606;2022-11-15T04:04:00;7.40;99.90
52285;DHT22;38238;53.304;6.606;2022-11-15T04:06:26;7.40;99.90
52285;DHT22;38238;53.304;6.606;2022-11-15T04:08:52;7.40;99.90
52285;DHT22;38238;53.304;6.606;2022-11-15T04:11:17;7.60;99.90
52285;DHT22;38238;53.304;6.606;2022-11-15T04:13:43;7.40;99.90
52285;DHT22;38238;53.304;6.606;2022-11-15T04:16:09;7.40;99.90
52285;DHT22;38238;53.304;6.606;2022-11-15T04:18:34;7.50;99.90
52285;DHT22;38238;53.304;6.606;2022-11-15T04:21:00;7.50;99.90
52285;DHT22;38238;53.304;6.606;2022-11-15T04:23:44;7.50;99.90
52285;DHT22;38238;53.304;6.606;2022-11-15T04:26:28;7.50;99.90
52285;DHT22;38238;53.304;6.606;2022-11-15T04:28:54;7.50;99.90
52285;DHT22;38238;53.304;6.606;2022-11-15T04:31:38;7.50;99.90
52285;DHT22;38238;53.304;6.606;2022-11-15T04:34:04;7.60;99.90
52285;DHT22;38238;53.304;6.606;2022-11-15T04:36:30;7.60;99.90
52285;DHT22;38238;53.304;6.606;2022-11-15T04:39:14;7.60;99.90
52285;DHT22;38238;53.304;6.606;2022-11-15T04:41:39;7.60;99.90
52285;DHT22;38238;53.304;6.606;2022-11-15T04:44:05;7.60;99.90
52285;DHT22;38238;53.304;6.606;2022-11-15T04:46:31;7.60;99.90
52285;DHT22;38238;53.304;6.606;2022-11-15T04:48:57;7.60;99.90
52285;DHT22;38238;53.304;6.606;2022-11-15T04:51:22;7.70;99.90
52285;DHT22;38238;53.304;6.606;2022-11-15T04:53:48;7.70;99.90
52285;DHT22;38238;53.304;6.606;2022-11-15T04:56:14;7.70;99.90
52285;DHT22;38238;53.304;6.606;2022-11-15T04:58:39;7.70;99.90
52285;DHT22;38238;53.304;6.606;2022-11-15T05:01:13;7.70;99.90
52285;DHT22;38238;53.304;6.606;2022-11-15T05:03:42;7.70;99.90
52285;DHT22;38238;53.304;6.606;2022-11-15T05:06:27;7.80;99.90
52285;DHT22;38238;53.304;6.606;2022-11-15T05:08:53;8.50;99.90
52285;DHT22;38238;53.304;6.606;2022-11-15T05:11:19;7.80;99.90
52285;DHT22;38238;53.304;6.606;2022-11-15T05:13:45;7.80;99.90
52285;DHT22;38238;53.304;6.606;2022-11-15T05:16:11;7.80;99.90
52285;DHT22;38238;53.304;6.606;2022-11-15T05:18:37;8.00;99.90
52285;DHT22;38238;53.304;6.606;2022-11-15T05:21:08;7.80;99.90
52285;DHT22;38238;53.304;6.606;2022-11-15T05:23:34;7.90;99.90
52285;DHT22;38238;53.304;6.606;2022-11-15T05:26:01;7.90;99.90
52285;DHT22;38238;53.304;6.606;2022-11-15T05:28:27;8.20;99.90
52285;DHT22;38238;53.304;6.606;2022-11-15T05:30:52;8.20;99.90
52285;DHT22;38238;53.304;6.606;2022-11-15T05:33:19;8.10;99.90
52285;DHT22;38238;53.304;6.606;2022-11-15T05:35:54;7.90;99.90
52285;DHT22;38238;53.304;6.606;2022-11-15T05:38:20;7.90;99.90
52285;DHT22;38238;53.304;6.606;2022-11-15T05:40:46;7.90;99.90
52285;DHT22;38238;53.304;6.606;2022-11-15T05:43:12;8.00;99.90
52285;DHT22;38238;53.304;6.606;2022-11-15T05:45:38;8.00;99.90
52285;DHT22;38238;53.304;6.606;2022-11-15T05:48:07;8.00;99.90
52285;DHT22;38238;53.304;6.606;2022-11-15T05:50:36;8.00;99.90
52285;DHT22;38238;53.304;6.606;2022-11-15T05:53:04;8.00;99.90
52285;DHT22;38238;53.304;6.606;2022-11-15T05:55:31;8.00;99.90
52285;DHT22;38238;53.304;6.606;2022-11-15T05:57:57;8.20;99.90
52285;DHT22;38238;53.304;6.606;2022-11-15T06:00:23;8.00;99.90
52285;DHT22;38238;53.304;6.606;2022-11-15T06:02:49;8.60;99.90
52285;DHT22;38238;53.304;6.606;2022-11-15T06:05:14;8.10;99.90
52285;DHT22;38238;53.304;6.606;2022-11-15T06:07:40;8.10;99.90
52285;DHT22;38238;53.304;6.606;2022-11-15T06:10:06;8.40;99.90
52285;DHT22;38238;53.304;6.606;2022-11-15T06:12:32;8.10;99.90
52285;DHT22;38238;53.304;6.606;2022-11-15T06:14:58;8.10;99.90
52285;DHT22;38238;53.304;6.606;2022-11-15T06:17:23;8.10;99.90
52285;DHT22;38238;53.304;6.606;2022-11-15T06:19:49;8.10;99.90
52285;DHT22;38238;53.304;6.606;2022-11-15T06:22:15;8.10;99.90
52285;DHT22;38238;53.304;6.606;2022-11-15T06:24:40;8.20;99.90
52285;DHT22;38238;53.304;6.606;2022-11-15T06:27:06;8.20;99.90
52285;DHT22;38238;53.304;6.606;2022-11-15T06:29:32;8.20;99.90
52285;DHT22;38238;53.304;6.606;2022-11-15T06:31:57;8.20;99.90
52285;DHT22;38238;53.304;6.606;2022-11-15T06:34:23;8.30;99.90
52285;DHT22;38238;53.304;6.606;2022-11-15T06:36:49;8.20;99.90
52285;DHT22;38238;53.304;6.606;2022-11-15T06:39:14;8.30;99.90
52285;DHT22;38238;53.304;6.606;2022-11-15T06:41:40;8.30;99.90
52285;DHT22;38238;53.304;6.606;2022-11-15T06:44:06;8.30;99.90
52285;DHT22;38238;53.304;6.606;2022-11-15T06:46:31;8.30;99.90
52285;DHT22;38238;53.304;6.606;2022-11-15T06:48:57;8.40;99.90
52285;DHT22;38238;53.304;6.606;2022-11-15T06:51:23;8.40;99.90
52285;DHT22;38238;53.304;6.606;2022-11-15T06:53:48;8.40;99.90
52285;DHT22;38238;53.304;6.606;2022-11-15T06:56:14;8.40;99.90
52285;DHT22;38238;53.304;6.606;2022-11-15T06:58:42;8.40;99.90
52285;DHT22;38238;53.304;6.606;2022-11-15T07:01:10;8.40;99.90
52285;DHT22;38238;53.304;6.606;2022-11-15T07:03:38;8.40;99.90
52285;DHT22;38238;53.304;6.606;2022-11-15T07:06:04;8.50;99.90
52285;DHT22;38238;53.304;6.606;2022-11-15T07:08:30;8.50;99.90
52285;DHT22;38238;53.304;6.606;2022-11-15T07:11:01;8.50;99.90
52285;DHT22;38238;53.304;6.606;2022-11-15T07:13:29;8.60;99.90
52285;DHT22;38238;53.304;6.606;2022-11-15T07:15:55;8.60;99.90
52285;DHT22;38238;53.304;6.606;2022-11-15T07:18:21;8.60;99.90
52285;DHT22;38238;53.304;6.606;2022-11-15T07:20:47;8.70;99.90
52285;DHT22;38238;53.304;6.606;2022-11-15T07:23:12;8.70;99.90
52285;DHT22;38238;53.304;6.606;2022-11-15T07:25:38;9.00;99.90
52285;DHT22;38238;53.304;6.606;2022-11-15T07:28:04;8.80;99.90
52285;DHT22;38238;53.304;6.606;2022-11-15T07:30:30;8.90;99.90
52285;DHT22;38238;53.304;6.606;2022-11-15T07:32:59;8.90;99.90
52285;DHT22;38238;53.304;6.606;2022-11-15T07:35:27;8.90;99.90
52285;DHT22;38238;53.304;6.606;2022-11-15T07:37:57;9.00;99.90
52285;DHT22;38238;53.304;6.606;2022-11-15T07:40:23;9.00;99.90
52285;DHT22;38238;53.304;6.606;2022-11-15T07:42:49;9.10;99.90
52285;DHT22;38238;53.304;6.606;2022-11-15T07:45:18;9.10;99.90
52285;DHT22;38238;53.304;6.606;2022-11-15T07:47:48;9.20;99.90
52285;DHT22;38238;53.304;6.606;2022-11-15T07:50:14;9.30;99.90
52285;DHT22;38238;53.304;6.606;2022-11-15T07:52:39;9.30;99.90
52285;DHT22;38238;53.304;6.606;2022-11-15T07:55:06;9.40;99.90
52285;DHT22;38238;53.304;6.606;2022-11-15T07:57:32;9.50;99.90
52285;DHT22;38238;53.304;6.606;2022-11-15T07:59:57;9.50;99.90
52285;DHT22;38238;53.304;6.606;2022-11-15T08:02:23;9.60;99.90
52285;DHT22;38238;53.304;6.606;2022-11-15T08:04:49;9.60;99.90
52285;DHT22;38238;53.304;6.606;2022-11-15T08:07:14;9.60;99.90
52285;DHT22;38238;53.304;6.606;2022-11-15T08:09:40;9.70;99.90
52285;DHT22;38238;53.304;6.606;2022-11-15T08:12:06;9.70;99.90
52285;DHT22;38238;53.304;6.606;2022-11-15T08:14:32;9.70;99.90
52285;DHT22;38238;53.304;6.606;2022-11-15T08:16:58;9.80;99.90
52285;DHT22;38238;53.304;6.606;2022-11-15T08:19:23;9.80;99.90
52285;DHT22;38238;53.304;6.606;2022-11-15T08:21:49;10.10;99.90
52285;DHT22;38238;53.304;6.606;2022-11-15T08:24:15;9.90;99.90
52285;DHT22;38238;53.304;6.606;2022-11-15T08:26:41;10.10;99.90
52285;DHT22;38238;53.304;6.606;2022-11-15T08:29:07;9.90;99.90
52285;DHT22;38238;53.304;6.606;2022-11-15T08:31:36;10.00;99.90
52285;DHT22;38238;53.304;6.606;2022-11-15T08:34:03;10.00;99.90
52285;DHT22;38238;53.304;6.606;2022-11-15T08:36:29;10.00;99.90
52285;DHT22;38238;53.304;6.606;2022-11-15T08:38:54;10.10;99.90
52285;DHT22;38238;53.304;6.606;2022-11-15T08:41:36;10.10;99.90
52285;DHT22;38238;53.304;6.606;2022-11-15T08:44:02;10.20;99.90
52285;DHT22;38238;53.304;6.606;2022-11-15T08:46:28;10.10;99.90
52285;DHT22;38238;53.304;6.606;2022-11-15T08:48:54;10.20;99.90
52285;DHT22;38238;53.304;6.606;2022-11-15T08:51:20;10.40;99.90
52285;DHT22;38238;53.304;6.606;2022-11-15T08:53:45;10.30;99.90
52285;DHT22;38238;53.304;6.606;2022-11-15T08:56:12;10.30;99.90
52285;DHT22;38238;53.304;6.606;2022-11-15T08:58:39;10.30;99.90
52285;DHT22;38238;53.304;6.606;2022-11-15T09:01:04;10.40;99.90
52285;DHT22;38238;53.304;6.606;2022-11-15T09:03:30;10.40;99.90
52285;DHT22;38238;53.304;6.606;2022-11-15T09:06:00;10.40;99.90
52285;DHT22;38238;53.304;6.606;2022-11-15T09:08:30;10.50;99.90
52285;DHT22;38238;53.304;6.606;2022-11-15T09:10:56;10.50;99.90
52285;DHT22;38238;53.304;6.606;2022-11-15T09:13:22;10.60;99.90
52285;DHT22;38238;53.304;6.606;2022-11-15T09:15:48;10.60;99.90
52285;DHT22;38238;53.304;6.606;2022-11-15T09:18:13;10.70;99.90
52285;DHT22;38238;53.304;6.606;2022-11-15T09:20:39;10.80;99.90
52285;DHT22;38238;53.304;6.606;2022-11-15T09:23:05;10.80;99.90
52285;DHT22;38238;53.304;6.606;2022-11-15T09:25:31;10.90;99.90
52285;DHT22;38238;53.304;6.606;2022-11-15T09:27:57;10.90;99.90
52285;DHT22;38238;53.304;6.606;2022-11-15T09:30:24;10.90;99.90
52285;DHT22;38238;53.304;6.606;2022-11-15T09:32:50;11.00;99.90
52285;DHT22;38238;53.304;6.606;2022-11-15T09:35:16;11.00;99.90
52285;DHT22;38238;53.304;6.606;2022-11-15T09:37:42;11.00;99.90
52285;DHT22;38238;53.304;6.606;2022-11-15T09:40:15;11.10;99.90
52285;DHT22;38238;53.304;6.606;2022-11-15T09:43:05;11.00;99.90
52285;DHT22;38238;53.304;6.606;2022-11-15T09:50:47;11.20;99.90
52285;DHT22;38238;53.304;6.606;2022-11-15T09:53:22;11.30;99.90
52285;DHT22;38238;53.304;6.606;2022-11-15T09:56:02;11.40;99.90
52285;DHT22;38238;53.304;6.606;2022-11-15T10:01:04;11.40;99.90
52285;DHT22;38238;53.304;6.606;2022-11-15T10:03:34;11.40;99.90
52285;DHT22;38238;53.304;6.606;2022-11-15T10:06:03;11.40;99.90
52285;DHT22;38238;53.304;6.606;2022-11-15T10:09:01;11.40;99.90
52285;DHT22;38238;53.304;6.606;2022-11-15T10:11:31;11.40;99.90
52285;DHT22;38238;53.304;6.606;2022-11-15T10:24:50;11.50;99.90
52285;DHT22;38238;53.304;6.606;2022-11-15T10:27:18;11.60;99.90
52285;DHT22;38238;53.304;6.606;2022-11-15T10:29:49;11.60;99.90
52285;DHT22;38238;53.304;6.606;2022-11-15T10:32:19;11.60;99.90
52285;DHT22;38238;53.304;6.606;2022-11-15T10:34:46;11.60;99.90
52285;DHT22;38238;53.304;6.606;2022-11-15T10:37:12;11.60;99.90
52285;DHT22;38238;53.304;6.606;2022-11-15T10:39:38;11.60;99.90
52285;DHT22;38238;53.304;6.606;2022-11-15T10:42:26;11.60;99.90
52285;DHT22;38238;53.304;6.606;2022-11-15T10:44:52;11.70;99.90
52285;DHT22;38238;53.304;6.606;2022-11-15T10:47:27;11.70;99.90
52285;DHT22;38238;53.304;6.606;2022-11-15T10:50:06;11.70;99.90
52285;DHT22;38238;53.304;6.606;2022-11-15T10:52:34;11.70;99.90
52285;DHT22;38238;53.304;6.606;2022-11-15T10:55:05;11.70;99.90
52285;DHT22;38238;53.304;6.606;2022-11-15T10:57:36;11.80;99.90
52285;DHT22;38238;53.304;6.606;2022-11-15T11:02:56;11.80;99.90
52285;DHT22;38238;53.304;6.606;2022-11-15T11:05:30;11.80;99.90
52285;DHT22;38238;53.304;6.606;2022-11-15T11:07:59;11.80;99.90
52285;DHT22;38238;53.304;6.606;2022-11-15T11:10:27;11.80;99.90
52285;DHT22;38238;53.304;6.606;2022-11-15T11:12:53;11.80;99.90
52285;DHT22;38238;53.304;6.606;2022-11-15T11:15:20;11.80;99.90
52285;DHT22;38238;53.304;6.606;2022-11-15T11:20:26;11.80;99.90
52285;DHT22;38238;53.304;6.606;2022-11-15T11:22:59;11.70;99.90
52285;DHT22;38238;53.304;6.606;2022-11-15T11:31:27;11.70;99.90
52285;DHT22;38238;53.304;6.606;2022-11-15T11:39:44;11.70;99.90
52285;DHT22;38238;53.304;6.606;2022-11-15T11:47:47;11.70;99.90
52285;DHT22;38238;53.304;6.606;2022-11-15T11:50:23;11.80;99.90
52285;DHT22;38238;53.304;6.606;2022-11-15T11:53:09;11.80;99.90
52285;DHT22;38238;53.304;6.606;2022-11-15T11:55:49;11.80;99.90
52285;DHT22;38238;53.304;6.606;2022-11-15T11:58:38;11.80;99.90
52285;DHT22;38238;53.304;6.606;2022-11-15T12:01:29;11.90;99.90
52285;DHT22;38238;53.304;6.606;2022-11-15T12:04:23;12.10;99.90
52285;DHT22;38238;53.304;6.606;2022-11-15T12:09:35;13.20;99.90
52285;DHT22;38238;53.304;6.606;2022-11-15T12:14:48;13.10;99.90
52285;DHT22;38238;53.304;6.606;2022-11-15T12:17:19;13.30;99.90
52285;DHT22;38238;53.304;6.606;2022-11-15T12:19:46;13.40;99.90
52285;DHT22;38238;53.304;6.606;2022-11-15T12:22:21;13.50;99.90
52285;DHT22;38238;53.304;6.606;2022-11-15T12:30:00;13.60;99.90
52285;DHT22;38238;53.304;6.606;2022-11-15T12:32:39;13.90;99.90
52285;DHT22;38238;53.304;6.606;2022-11-15T12:37:56;14.00;99.90
52285;DHT22;38238;53.304;6.606;2022-11-15T12:40:30;14.10;99.90
52285;DHT22;38238;53.304;6.606;2022-11-15T12:47:52;13.30;99.90
52285;DHT22;38238;53.304;6.606;2022-11-15T12:53:29;12.80;99.90
52285;DHT22;38238;53.304;6.606;2022-11-15T13:01:09;12.50;99.90
52285;DHT22;38238;53.304;6.606;2022-11-15T13:03:35;12.40;99.90
52285;DHT22;38238;53.304;6.606;2022-11-15T13:12:49;12.30;99.90
52285;DHT22;38238;53.304;6.606;2022-11-15T13:28:31;12.60;99.90
52285;DHT22;38238;53.304;6.606;2022-11-15T13:30:59;12.80;99.90
52285;DHT22;38238;53.304;6.606;2022-11-15T13:33:34;12.80;99.90
52285;DHT22;38238;53.304;6.606;2022-11-15T13:38:38;12.80;99.90
52285;DHT22;38238;53.304;6.606;2022-11-15T13:41:22;12.70;99.90
52285;DHT22;38238;53.304;6.606;2022-11-15T13:43:49;12.70;99.90
52285;DHT22;38238;53.304;6.606;2022-11-15T13:46:20;12.60;99.90
52285;DHT22;38238;53.304;6.606;2022-11-15T13:48:50;12.60;99.90
52285;DHT22;38238;53.304;6.606;2022-11-15T13:56:58;12.40;99.90
52285;DHT22;38238;53.304;6.606;2022-11-15T13:59:27;12.40;99.90
52285;DHT22;38238;53.304;6.606;2022-11-15T14:01:58;12.40;99.90
52285;DHT22;38238;53.304;6.606;2022-11-15T14:04:28;12.30;99.90
52285;DHT22;38238;53.304;6.606;2022-11-15T14:07:01;12.30;99.90
52285;DHT22;38238;53.304;6.606;2022-11-15T14:09:38;12.30;99.90
52285;DHT22;38238;53.304;6.606;2022-11-15T14:12:30;12.20;99.90
52285;DHT22;38238;53.304;6.606;2022-11-15T14:14:59;12.30;99.90
52285;DHT22;38238;53.304;6.606;2022-11-15T14:19:53;12.20;99.90
52285;DHT22;38238;53.304;6.606;2022-11-15T14:22:25;12.20;99.90
52285;DHT22;38238;53.304;6.606;2022-11-15T14:25:13;12.10;99.90
52285;DHT22;38238;53.304;6.606;2022-11-15T14:27:57;12.10;99.90
52285;DHT22;38238;53.304;6.606;2022-11-15T14:30:30;12.00;99.90
52285;DHT22;38238;53.304;6.606;2022-11-15T14:32:57;12.00;99.90
52285;DHT22;38238;53.304;6.606;2022-11-15T14:35:25;11.90;99.90
52285;DHT22;38238;53.304;6.606;2022-11-15T14:37:51;11.90;99.90
52285;DHT22;38238;53.304;6.606;2022-11-15T14:40:19;11.80;99.90
52285;DHT22;38238;53.304;6.606;2022-11-15T14:42:46;11.80;99.90
52285;DHT22;38238;53.304;6.606;2022-11-15T14:45:18;11.70;99.90
52285;DHT22;38238;53.304;6.606;2022-11-15T14:47:44;11.70;99.90
52285;DHT22;38238;53.304;6.606;2022-11-15T14:50:20;11.60;99.90
52285;DHT22;38238;53.304;6.606;2022-11-15T14:52:47;11.50;99.90
52285;DHT22;38238;53.304;6.606;2022-11-15T14:55:26;11.50;99.90
52285;DHT22;38238;53.304;6.606;2022-11-15T14:57:53;11.40;99.90
52285;DHT22;38238;53.304;6.606;2022-11-15T15:00:19;11.40;99.90
52285;DHT22;38238;53.304;6.606;2022-11-15T15:02:46;11.30;99.90
52285;DHT22;38238;53.304;6.606;2022-11-15T15:05:44;11.20;99.90
52285;DHT22;38238;53.304;6.606;2022-11-15T15:08:10;11.20;99.90
52285;DHT22;38238;53.304;6.606;2022-11-15T15:10:38;11.10;99.90
52285;DHT22;38238;53.304;6.606;2022-11-15T15:13:05;11.10;99.90
52285;DHT22;38238;53.304;6.606;2022-11-15T15:15:36;11.00;99.90
52285;DHT22;38238;53.304;6.606;2022-11-15T15:18:02;11.00;99.90
52285;DHT22;38238;53.304;6.606;2022-11-15T15:20:30;10.90;99.90
52285;DHT22;38238;53.304;6.606;2022-11-15T15:22:56;10.90;99.90
52285;DHT22;38238;53.304;6.606;2022-11-15T15:27:52;10.80;99.90
52285;DHT22;38238;53.304;6.606;2022-11-15T15:30:18;10.70;99.90
52285;DHT22;38238;53.304;6.606;2022-11-15T15:32:44;10.70;99.90
52285;DHT22;38238;53.304;6.606;2022-11-15T15:35:14;10.70;99.90
52285;DHT22;38238;53.304;6.606;2022-11-15T15:37:41;10.60;99.90
52285;DHT22;38238;53.304;6.606;2022-11-15T15:40:20;10.60;99.90
52285;DHT22;38238;53.304;6.606;2022-11-15T15:42:47;10.50;99.90
52285;DHT22;38238;53.304;6.606;2022-11-15T15:45:13;10.50;99.90
52285;DHT22;38238;53.304;6.606;2022-11-15T15:47:40;10.40;99.90
52285;DHT22;38238;53.304;6.606;2022-11-15T15:52:48;10.40;99.90
52285;DHT22;38238;53.304;6.606;2022-11-15T15:55:14;10.30;99.90
52285;DHT22;38238;53.304;6.606;2022-11-15T15:57:39;10.30;99.90
52285;DHT22;38238;53.304;6.606;2022-11-15T16:00:06;10.30;99.90
52285;DHT22;38238;53.304;6.606;2022-11-15T16:02:32;10.20;99.90
52285;DHT22;38238;53.304;6.606;2022-11-15T16:04:57;10.20;99.90
52285;DHT22;38238;53.304;6.606;2022-11-15T16:07:23;10.60;99.90
52285;DHT22;38238;53.304;6.606;2022-11-15T16:09:51;10.20;99.90
52285;DHT22;38238;53.304;6.606;2022-11-15T16:12:25;10.20;99.90
52285;DHT22;38238;53.304;6.606;2022-11-15T16:14:51;10.20;99.90
52285;DHT22;38238;53.304;6.606;2022-11-15T16:17:19;10.20;99.90
52285;DHT22;38238;53.304;6.606;2022-11-15T16:19:45;10.20;99.90
52285;DHT22;38238;53.304;6.606;2022-11-15T16:22:11;10.20;99.90
52285;DHT22;38238;53.304;6.606;2022-11-15T16:24:37;10.10;99.90
52285;DHT22;38238;53.304;6.606;2022-11-15T16:27:03;10.10;99.90
52285;DHT22;38238;53.304;6.606;2022-11-15T16:29:28;10.10;99.90
52285;DHT22;38238;53.304;6.606;2022-11-15T16:31:55;10.10;99.90
52285;DHT22;38238;53.304;6.606;2022-11-15T16:34:21;10.10;99.90
52285;DHT22;38238;53.304;6.606;2022-11-15T16:36:47;10.10;99.90
52285;DHT22;38238;53.304;6.606;2022-11-15T16:39:13;10.10;99.90
52285;DHT22;38238;53.304;6.606;2022-11-15T16:41:41;10.00;99.90
52285;DHT22;38238;53.304;6.606;2022-11-15T16:44:08;10.00;99.90
52285;DHT22;38238;53.304;6.606;2022-11-15T16:46:34;10.00;99.90
52285;DHT22;38238;53.304;6.606;2022-11-15T16:49:00;10.00;99.90
52285;DHT22;38238;53.304;6.606;2022-11-15T16:51:26;10.00;99.90
52285;DHT22;38238;53.304;6.606;2022-11-15T16:53:52;10.00;99.90
52285;DHT22;38238;53.304;6.606;2022-11-15T16:56:24;10.10;99.90
52285;DHT22;38238;53.304;6.606;2022-11-15T16:58:51;10.00;99.90
52285;DHT22;38238;53.304;6.606;2022-11-15T17:01:24;10.00;99.90
52285;DHT22;38238;53.304;6.606;2022-11-15T17:03:50;10.10;99.90
52285;DHT22;38238;53.304;6.606;2022-11-15T17:06:16;10.10;99.90
52285;DHT22;38238;53.304;6.606;2022-11-15T17:08:46;10.10;99.90
52285;DHT22;38238;53.304;6.606;2022-11-15T17:11:17;10.10;99.90
52285;DHT22;38238;53.304;6.606;2022-11-15T17:13:43;10.20;99.90
52285;DHT22;38238;53.304;6.606;2022-11-15T17:16:12;10.20;99.90
52285;DHT22;38238;53.304;6.606;2022-11-15T17:18:39;10.20;99.90
52285;DHT22;38238;53.304;6.606;2022-11-15T17:21:14;10.20;99.90
52285;DHT22;38238;53.304;6.606;2022-11-15T17:23:39;10.20;99.90
52285;DHT22;38238;53.304;6.606;2022-11-15T17:26:05;10.20;99.90
52285;DHT22;38238;53.304;6.606;2022-11-15T17:28:32;10.20;99.90
52285;DHT22;38238;53.304;6.606;2022-11-15T17:30:58;10.30;99.90
52285;DHT22;38238;53.304;6.606;2022-11-15T17:33:24;10.30;99.90
52285;DHT22;38238;53.304;6.606;2022-11-15T17:35:57;10.30;99.90
52285;DHT22;38238;53.304;6.606;2022-11-15T17:38:24;10.30;99.90
52285;DHT22;38238;53.304;6.606;2022-11-15T17:41:03;10.30;99.90
52285;DHT22;38238;53.304;6.606;2022-11-15T17:43:31;10.30;99.90
52285;DHT22;38238;53.304;6.606;2022-11-15T17:45:58;10.30;99.90
52285;DHT22;38238;53.304;6.606;2022-11-15T17:48:24;10.30;99.90
52285;DHT22;38238;53.304;6.606;2022-11-15T17:51:10;10.20;99.90
52285;DHT22;38238;53.304;6.606;2022-11-15T17:53:39;10.30;99.90
52285;DHT22;38238;53.304;6.606;2022-11-15T17:56:10;10.20;99.90
52285;DHT22;38238;53.304;6.606;2022-11-15T17:58:37;10.20;99.90